createdAt,value
2022-12-18T00:02:10.114Z,123.00
2022-12-18T00:04:52.482Z,128.93
2022-12-18T00:07:41.086Z,125.03
2022-12-18T00:10:23.498Z,126.88
2022-12-18T00:13:12.120Z,125.07
2022-12-18T00:16:01.223Z,125.60
2022-12-18T00:18:44.369Z,122.57
2022-12-18T00:21:34.160Z,126.32
2022-12-18T00:24:16.330Z,121.53
2022-12-18T00:27:05.261Z,121.43
2022-12-18T00:29:53.446Z,124.53
2022-12-18T00:32:49.157Z,124.90
2022-12-18T00:35:34.712Z,120.32
2022-12-18T00:38:23.564Z,119.88
2022-12-18T00:41:06.107Z,122.53
2022-12-18T00:43:55.250Z,119.78
2022-12-18T00:46:37.336Z,121.97
2022-12-18T00:49:26.191Z,120.60
2022-12-18T00:52:08.403Z,117.80
2022-12-18T00:54:58.797Z,119.53
2022-12-18T00:57:44.523Z,121.47
2022-12-18T01:00:33.213Z,121.53
2022-12-18T01:03:25.529Z,121.43
2022-12-18T01:06:08.058Z,124.05
2022-12-18T01:08:56.443Z,128.37
2022-12-18T01:11:39.151Z,119.28
2022-12-18T01:14:21.632Z,119.10
2022-12-18T01:17:12.144Z,116.72
2022-12-18T01:20:00.390Z,119.82
2022-12-18T01:22:42.194Z,121.22
2022-12-18T01:25:24.403Z,121.43
2022-12-18T01:28:13.194Z,121.40
2022-12-18T01:30:55.303Z,118.65
2022-12-18T01:33:44.135Z,117.97
2022-12-18T01:36:29.614Z,117.90
2022-12-18T01:39:26.118Z,117.43
2022-12-18T01:42:23.485Z,116.60
2022-12-18T01:45:14.034Z,115.68
2022-12-18T01:48:06.597Z,116.60
2022-12-18T01:50:52.188Z,119.80
2022-12-18T01:53:42.180Z,115.22
2022-12-18T01:56:30.252Z,117.15
2022-12-18T01:59:19.992Z,119.30
2022-12-18T02:02:09.313Z,117.43
2022-12-18T02:04:57.446Z,117.18
2022-12-18T02:07:54.067Z,118.10
2022-12-18T02:11:13.420Z,114.93
2022-12-18T02:14:10.096Z,117.22
2022-12-18T02:17:10.370Z,117.22
2022-12-18T02:20:12.136Z,115.75
2022-12-18T02:23:19.421Z,115.15
2022-12-18T02:26:15.127Z,119.10
2022-12-18T02:29:14.418Z,118.75
2022-12-18T02:32:07.106Z,117.72
2022-12-18T02:34:58.484Z,117.10
2022-12-18T02:37:43.975Z,118.25
2022-12-18T02:40:35.181Z,119.28
2022-12-18T02:43:24.406Z,117.18
2022-12-18T02:46:38.194Z,119.05
2022-12-18T02:49:38.935Z,119.10
2022-12-18T02:52:33.076Z,121.20
2022-12-18T02:55:52.489Z,118.75
2022-12-18T02:58:49.113Z,119.47
2022-12-18T03:02:00.575Z,118.57
2022-12-18T03:05:00.130Z,119.63
2022-12-18T03:07:52.412Z,119.53
2022-12-18T03:10:52.025Z,122.03
2022-12-18T03:14:08.111Z,121.65
2022-12-18T03:17:01.371Z,121.15
2022-12-18T03:19:45.153Z,128.52
2022-12-18T03:22:35.876Z,123.13
2022-12-18T03:28:18.981Z,136.20
2022-12-18T03:31:16.974Z,135.05
2022-12-18T03:34:25.035Z,132.20
2022-12-18T03:37:19.117Z,136.57
2022-12-18T03:40:01.393Z,129.75
2022-12-18T03:43:06.976Z,127.13
2022-12-18T03:46:00.451Z,130.88
2022-12-18T03:49:06.024Z,127.50
2022-12-18T03:52:00.770Z,125.32
2022-12-18T03:54:52.977Z,128.10
2022-12-18T03:57:39.439Z,126.28
2022-12-18T04:00:29.167Z,126.95
2022-12-18T04:03:26.615Z,127.97
2022-12-18T04:06:19.993Z,128.30
2022-12-18T04:09:03.388Z,128.82
2022-12-18T04:11:57.192Z,126.70
2022-12-18T04:14:46.149Z,131.70
2022-12-18T04:17:28.393Z,133.10
2022-12-18T04:20:18.113Z,133.68
2022-12-18T04:23:06.994Z,132.65
2022-12-18T04:25:49.404Z,132.13
2022-12-18T04:28:53.278Z,126.55
2022-12-18T04:31:36.402Z,116.53
2022-12-18T04:34:25.149Z,121.47
2022-12-18T04:37:07.422Z,124.05
2022-12-18T04:39:56.124Z,125.90
2022-12-18T04:42:47.392Z,113.30
2022-12-18T04:45:36.209Z,115.03
2022-12-18T04:48:18.438Z,116.47
2022-12-18T04:51:07.148Z,116.63
2022-12-18T04:53:49.378Z,112.80
2022-12-18T04:56:40.215Z,110.95
2022-12-18T04:59:22.399Z,116.18
2022-12-18T05:02:12.222Z,117.20
2022-12-18T05:04:54.382Z,116.32
2022-12-18T05:07:42.998Z,118.03
2022-12-18T05:10:25.455Z,110.47
2022-12-18T05:13:14.152Z,99.03
2022-12-18T05:16:01.508Z,105.88
2022-12-18T05:18:50.119Z,104.95
2022-12-18T05:21:32.430Z,99.60
2022-12-18T05:24:21.092Z,102.18
2022-12-18T05:27:03.563Z,98.70
2022-12-18T05:29:52.174Z,96.32
2022-12-18T05:32:34.374Z,91.47
2022-12-18T05:35:29.399Z,86.72
2022-12-18T05:38:19.393Z,91.32
2022-12-18T05:41:02.145Z,85.18
2022-12-18T05:43:44.918Z,79.55
2022-12-18T05:46:34.207Z,88.28
2022-12-18T05:49:23.097Z,87.28
2022-12-18T05:52:05.860Z,95.53
2022-12-18T05:54:55.107Z,88.35
2022-12-18T05:57:37.446Z,89.32
2022-12-18T06:00:26.130Z,87.28
2022-12-18T06:03:08.543Z,97.85
2022-12-18T06:05:57.144Z,110.57
2022-12-18T06:08:44.374Z,117.18
2022-12-18T06:11:36.137Z,114.38
2022-12-18T06:14:26.152Z,111.95
2022-12-18T06:17:14.417Z,114.45
2022-12-18T06:19:56.036Z,114.65
2022-12-18T06:22:39.134Z,117.20
2022-12-18T06:25:28.094Z,131.73
2022-12-18T06:28:31.406Z,131.13
2022-12-18T06:31:20.131Z,124.32
2022-12-18T06:34:11.389Z,123.75
2022-12-18T06:36:54.006Z,120.00
2022-12-18T06:39:43.198Z,118.70
2022-12-18T06:42:25.575Z,118.88
2022-12-18T06:45:14.188Z,115.68
2022-12-18T06:47:56.448Z,114.32
2022-12-18T06:50:46.142Z,116.43
2022-12-18T06:53:35.042Z,114.38
2022-12-18T06:56:23.508Z,111.53
2022-12-18T06:59:06.089Z,107.35
2022-12-18T07:01:55.671Z,106.22
2022-12-18T07:04:40.096Z,103.43
2022-12-18T07:07:28.956Z,95.97
2022-12-18T07:10:19.094Z,92.78
2022-12-18T07:13:07.283Z,93.40
2022-12-18T07:15:49.036Z,91.53
2022-12-18T07:18:31.272Z,92.25
2022-12-18T07:21:26.148Z,92.78
2022-12-18T07:24:15.367Z,95.60
2022-12-18T07:27:04.055Z,95.82
2022-12-18T07:29:53.580Z,95.40
2022-12-18T07:32:41.405Z,96.60
2022-12-18T07:35:25.437Z,96.47
2022-12-18T07:38:07.508Z,94.35
2022-12-18T07:40:56.144Z,98.43
2022-12-18T07:43:45.411Z,95.70
2022-12-18T07:46:28.100Z,95.53
2022-12-18T07:49:10.331Z,92.47
2022-12-18T07:51:59.142Z,90.10
2022-12-18T07:54:42.358Z,94.25
2022-12-18T07:57:49.834Z,95.03
2022-12-18T08:00:39.361Z,92.57
2022-12-18T08:03:25.170Z,96.32
2022-12-18T08:06:16.106Z,97.15
2022-12-18T08:09:10.049Z,95.43
2022-12-18T08:11:59.089Z,96.65
2022-12-18T08:14:41.629Z,97.97
2022-12-18T08:17:29.975Z,98.68
2022-12-18T08:20:16.898Z,96.72
2022-12-18T08:23:07.082Z,98.25
2022-12-18T08:26:03.142Z,100.45
2022-12-18T08:28:45.933Z,100.85
2022-12-18T08:31:35.074Z,103.03
2022-12-18T08:34:17.359Z,103.85
2022-12-18T08:37:06.335Z,104.60
2022-12-18T08:39:48.343Z,103.93
2022-12-18T08:42:55.139Z,104.75
2022-12-18T08:45:37.485Z,100.30
2022-12-18T08:48:26.114Z,100.65
2022-12-18T08:51:08.692Z,104.60
2022-12-18T08:53:58.050Z,103.28
2022-12-18T08:56:47.041Z,101.03
2022-12-18T08:59:29.422Z,103.43
2022-12-18T09:02:20.225Z,105.35
2022-12-18T09:05:02.360Z,112.38
2022-12-18T09:07:50.981Z,107.57
2022-12-18T09:10:34.271Z,105.93
2022-12-18T09:13:26.031Z,115.72
2022-12-18T09:16:08.281Z,119.47
2022-12-18T09:18:56.935Z,118.85
2022-12-18T09:21:47.732Z,118.75
2022-12-18T09:24:37.201Z,119.60
2022-12-18T09:27:25.388Z,117.13
2022-12-18T09:30:08.139Z,121.15
2022-12-18T09:32:57.503Z,119.22
2022-12-18T09:35:40.078Z,140.02
2022-12-18T09:38:29.365Z,139.43
2022-12-18T09:41:35.112Z,140.95
2022-12-18T09:44:35.377Z,139.02
2022-12-18T09:47:25.979Z,135.15
2022-12-18T09:50:34.050Z,135.98
2022-12-18T09:53:24.427Z,132.48
2022-12-18T09:56:13.997Z,129.55
2022-12-18T09:59:08.415Z,131.15
2022-12-18T10:01:57.065Z,131.57
2022-12-18T10:04:41.423Z,128.52
2022-12-18T10:07:48.022Z,123.38
2022-12-18T10:10:33.408Z,121.18
2022-12-18T10:13:31.070Z,120.10
2022-12-18T10:16:25.527Z,121.72
2022-12-18T10:19:23.129Z,115.30
2022-12-18T10:22:05.431Z,113.88
2022-12-18T10:25:29.033Z,110.22
2022-12-18T10:28:23.501Z,110.47
2022-12-18T10:31:06.184Z,105.85
2022-12-18T10:33:55.628Z,104.50
2022-12-18T10:36:39.133Z,109.13
2022-12-18T10:39:33.389Z,103.13
2022-12-18T10:42:28.028Z,105.07
2022-12-18T10:45:25.422Z,105.95
2022-12-18T10:48:07.977Z,104.47
2022-12-18T10:51:15.076Z,109.43
2022-12-18T10:54:18.106Z,104.00
2022-12-18T10:57:27.351Z,105.00
2022-12-18T11:00:35.963Z,104.80
2022-12-18T11:03:44.581Z,104.20
2022-12-18T11:06:33.104Z,104.28
2022-12-18T11:09:31.431Z,106.18
2022-12-18T11:12:29.101Z,105.55
2022-12-18T11:15:21.925Z,105.55
2022-12-18T11:18:11.115Z,110.13
2022-12-18T11:21:11.256Z,103.50
2022-12-18T11:24:09.044Z,102.65
2022-12-18T11:26:59.982Z,104.97
2022-12-18T11:29:47.176Z,101.07
2022-12-18T11:32:45.856Z,100.47
2022-12-18T11:36:00.144Z,102.50
2022-12-18T11:38:45.081Z,99.05
2022-12-18T11:42:11.077Z,102.75
2022-12-18T11:45:21.296Z,103.85
2022-12-18T11:48:24.020Z,106.53
2022-12-18T11:51:27.151Z,110.32
2022-12-18T11:54:09.962Z,110.90
2022-12-18T11:57:19.770Z,110.87
2022-12-18T12:00:14.166Z,108.60
2022-12-18T12:06:04.024Z,105.90
2022-12-18T12:09:37.076Z,109.18
2022-12-18T12:12:49.497Z,105.22
2022-12-18T12:15:49.099Z,108.00
2022-12-18T12:18:46.457Z,109.65
2022-12-18T12:21:51.011Z,108.32
2022-12-18T12:24:55.049Z,110.28
2022-12-18T12:31:04.890Z,109.43
2022-12-18T12:34:07.365Z,108.55
2022-12-18T12:37:03.114Z,113.43
2022-12-18T12:39:55.352Z,111.88
2022-12-18T12:43:09.120Z,112.28
2022-12-18T12:46:05.231Z,111.00
2022-12-18T12:49:10.750Z,107.65
2022-12-18T12:54:49.421Z,109.35
2022-12-18T12:57:55.096Z,111.55
2022-12-18T13:00:45.356Z,112.60
2022-12-18T13:04:05.044Z,115.13
2022-12-18T13:06:56.596Z,115.93
2022-12-18T13:10:25.699Z,114.00
2022-12-18T13:13:11.798Z,115.15
2022-12-18T13:16:18.999Z,115.22
2022-12-18T13:19:03.548Z,117.68
2022-12-18T13:22:02.994Z,125.10
2022-12-18T13:24:45.367Z,120.68
2022-12-18T13:27:58.938Z,121.15
2022-12-18T13:34:25.793Z,114.35
2022-12-18T13:36:57.055Z,117.80
2022-12-18T13:39:45.380Z,120.65
2022-12-18T13:43:06.993Z,120.75
2022-12-18T13:46:13.967Z,117.97
2022-12-18T13:49:21.076Z,118.07
2022-12-18T13:52:10.331Z,118.50
2022-12-18T13:54:59.311Z,119.13
2022-12-18T13:57:49.002Z,119.45
2022-12-18T14:00:31.377Z,119.18
2022-12-18T14:03:35.059Z,118.70
2022-12-18T14:06:18.343Z,121.38
2022-12-18T14:09:08.238Z,121.00
2022-12-18T14:12:16.082Z,119.05
2022-12-18T14:15:05.088Z,121.20
2022-12-18T14:17:48.338Z,121.18
2022-12-18T14:20:40.078Z,123.80
2022-12-18T14:23:49.486Z,120.95
2022-12-18T14:26:40.055Z,123.85
2022-12-18T14:29:40.287Z,120.82
2022-12-18T14:32:30.062Z,123.40
2022-12-18T14:35:22.255Z,125.60
2022-12-18T14:38:30.107Z,127.68
2022-12-18T14:41:19.467Z,129.15
2022-12-18T14:44:16.073Z,132.27
2022-12-18T14:47:05.952Z,124.55
2022-12-18T14:49:55.322Z,126.30
2022-12-18T14:52:40.962Z,129.43
2022-12-18T14:55:30.450Z,129.50
2022-12-18T14:58:12.091Z,127.05
2022-12-18T15:00:54.513Z,129.73
2022-12-18T15:03:44.297Z,134.73
2022-12-18T15:06:43.847Z,129.00
2022-12-18T15:09:34.932Z,126.80
2022-12-18T15:12:55.057Z,128.40
2022-12-18T15:15:44.425Z,128.85
2022-12-18T15:18:40.938Z,123.07
2022-12-18T15:21:33.519Z,129.55
2022-12-18T15:24:29.054Z,126.20
2022-12-18T15:27:31.343Z,126.55
2022-12-18T15:30:19.033Z,131.95
2022-12-18T15:33:33.252Z,134.45
2022-12-18T15:36:26.291Z,129.95
2022-12-18T15:39:16.407Z,132.88
2022-12-18T15:42:17.037Z,130.55
2022-12-18T15:45:07.499Z,135.30
2022-12-18T15:47:53.100Z,137.75
2022-12-18T15:50:43.081Z,135.07
2022-12-18T15:53:26.679Z,137.52
2022-12-18T15:56:39.149Z,142.95
2022-12-18T15:59:24.303Z,140.07
2022-12-18T16:02:26.560Z,145.30
2022-12-18T16:05:09.328Z,146.75
2022-12-18T16:07:57.889Z,140.50
2022-12-18T16:10:40.398Z,144.60
2022-12-18T16:13:29.945Z,147.48
2022-12-18T16:16:13.490Z,145.38
2022-12-18T16:19:02.016Z,148.90
2022-12-18T16:21:45.305Z,144.07
2022-12-18T16:24:37.019Z,144.93
2022-12-18T16:27:32.880Z,140.02
2022-12-18T16:30:25.950Z,145.65
2022-12-18T16:33:08.261Z,147.73
2022-12-18T16:36:00.985Z,150.38
2022-12-18T16:38:49.859Z,146.03
2022-12-18T16:41:35.365Z,145.00
2022-12-18T16:44:25.064Z,145.95
2022-12-18T16:47:15.086Z,142.73
2022-12-18T16:50:00.996Z,145.07
2022-12-18T16:52:50.361Z,143.00
2022-12-18T16:55:31.973Z,143.68
2022-12-18T16:58:14.221Z,142.60
2022-12-18T17:01:03.049Z,142.75
2022-12-18T17:03:46.086Z,140.40
2022-12-18T17:06:41.059Z,146.35
2022-12-18T17:09:37.974Z,141.10
2022-12-18T17:12:20.258Z,146.27
2022-12-18T17:15:09.022Z,148.13
2022-12-18T17:17:57.319Z,147.43
2022-12-18T17:20:40.099Z,148.55
2022-12-18T17:23:28.346Z,151.25
2022-12-18T17:26:11.025Z,146.13
2022-12-18T17:29:07.051Z,151.57
2022-12-18T17:31:57.229Z,151.27
2022-12-18T17:34:41.954Z,149.32
2022-12-18T17:37:31.033Z,156.10
2022-12-18T17:40:15.824Z,154.15
2022-12-18T17:43:08.445Z,153.25
2022-12-18T17:45:51.321Z,147.65
2022-12-18T17:48:44.776Z,152.50
2022-12-18T17:51:29.459Z,150.88
2022-12-18T17:54:21.081Z,152.60
2022-12-18T17:57:04.894Z,148.70
2022-12-18T18:02:36.462Z,148.48
2022-12-18T18:05:25.071Z,150.82
2022-12-18T18:08:11.650Z,152.85
2022-12-18T18:11:01.322Z,152.40
2022-12-18T18:14:01.708Z,152.80
2022-12-18T18:16:58.231Z,145.80
2022-12-18T18:19:49.776Z,150.25
2022-12-18T18:22:41.034Z,148.77
2022-12-18T18:25:23.323Z,147.63
2022-12-18T18:28:21.953Z,149.52
2022-12-18T18:31:08.802Z,148.57
2022-12-18T18:33:58.221Z,151.65
2022-12-18T18:36:47.833Z,149.80
2022-12-18T18:39:33.431Z,154.15
2022-12-18T18:42:23.451Z,150.32
2022-12-18T18:48:16.911Z,153.30
2022-12-18T18:51:23.515Z,147.73
2022-12-18T18:57:33.327Z,150.68
2022-12-18T19:00:23.386Z,154.95
2022-12-18T19:07:29.729Z,152.50
2022-12-18T19:10:19.959Z,151.88
2022-12-18T19:13:27.972Z,150.77
2022-12-18T19:16:18.367Z,149.10
2022-12-18T19:19:02.955Z,151.52
2022-12-18T19:21:52.033Z,153.60
2022-12-18T19:24:34.330Z,148.18
2022-12-18T19:27:26.102Z,147.65
2022-12-18T19:30:08.362Z,146.10
2022-12-18T19:33:05.467Z,148.07
2022-12-18T19:35:57.497Z,146.70
2022-12-18T19:38:49.439Z,148.40
2022-12-18T19:41:32.940Z,146.98
2022-12-18T19:44:24.936Z,148.82
2022-12-18T19:47:08.151Z,147.95
2022-12-18T19:49:56.981Z,148.88
2022-12-18T19:52:39.309Z,145.90
2022-12-18T19:55:27.939Z,149.55
2022-12-18T19:58:10.268Z,149.10
2022-12-18T20:00:58.920Z,151.32
2022-12-18T20:03:41.786Z,151.45
2022-12-18T20:06:59.966Z,153.85
2022-12-18T20:10:00.419Z,155.43
2022-12-18T20:12:55.200Z,152.48
2022-12-18T20:15:44.885Z,155.55
2022-12-18T20:18:34.210Z,154.10
2022-12-18T20:21:15.984Z,156.15
2022-12-18T20:24:00.146Z,157.32
2022-12-18T20:26:48.956Z,152.95
2022-12-18T20:29:31.612Z,155.95
2022-12-18T20:32:20.997Z,159.02
2022-12-18T20:35:09.326Z,158.10
2022-12-18T20:37:52.001Z,154.90
2022-12-18T20:40:41.924Z,162.00
2022-12-18T20:43:24.287Z,158.13
2022-12-18T20:46:16.968Z,155.85
2022-12-18T20:48:59.299Z,158.52
2022-12-18T20:51:48.028Z,157.18
2022-12-18T20:54:32.320Z,155.70
2022-12-18T20:57:20.970Z,156.55
2022-12-18T21:00:03.215Z,155.10
2022-12-18T21:02:52.051Z,153.70
2022-12-18T21:05:34.263Z,152.20
2022-12-18T21:08:24.964Z,157.88
2022-12-18T21:11:54.381Z,155.90
2022-12-18T21:14:43.006Z,155.20
2022-12-18T21:17:25.988Z,156.77
2022-12-18T21:20:18.139Z,159.85
2022-12-18T21:23:15.733Z,154.60
2022-12-18T21:26:23.886Z,155.38
2022-12-18T21:29:10.202Z,157.13
2022-12-18T21:32:00.846Z,156.00
2022-12-18T21:34:47.951Z,168.20
2022-12-18T21:37:36.916Z,163.32
2022-12-18T21:40:20.305Z,162.27
2022-12-18T21:43:27.004Z,162.25
2022-12-18T21:46:09.293Z,156.35
2022-12-18T21:48:57.839Z,158.50
2022-12-18T21:51:41.266Z,159.00
2022-12-18T21:54:31.069Z,159.27
2022-12-18T21:57:17.622Z,154.25
2022-12-18T22:00:07.065Z,157.50
2022-12-18T22:02:49.576Z,158.15
2022-12-18T22:06:07.636Z,160.27
2022-12-18T22:08:57.275Z,159.10
2022-12-18T22:11:40.021Z,159.32
2022-12-18T22:14:30.228Z,158.63
2022-12-18T22:17:13.222Z,157.52
2022-12-18T22:20:02.917Z,156.75
2022-12-18T22:22:45.210Z,153.68
2022-12-18T22:25:33.892Z,154.75
2022-12-18T22:28:41.900Z,151.80
2022-12-18T22:31:30.911Z,150.73
2022-12-18T22:34:23.159Z,151.10
2022-12-18T22:37:18.984Z,150.45
2022-12-18T22:40:07.500Z,153.57
2022-12-18T22:42:51.309Z,153.25
2022-12-18T22:45:41.241Z,149.57
2022-12-18T22:48:23.802Z,150.98
2022-12-18T22:51:13.227Z,149.02
2022-12-18T22:53:55.047Z,143.13
2022-12-18T22:56:37.514Z,149.65
2022-12-18T22:59:36.844Z,145.32
2022-12-18T23:02:27.078Z,145.65
2022-12-18T23:05:15.948Z,148.65
2022-12-18T23:08:05.241Z,143.52
2022-12-18T23:10:48.004Z,147.35
2022-12-18T23:13:30.526Z,147.82
2022-12-18T23:16:24.031Z,145.20
2022-12-18T23:19:06.764Z,148.20
2022-12-18T23:21:57.075Z,148.23
2022-12-18T23:24:46.991Z,150.25
2022-12-18T23:27:36.991Z,145.82
2022-12-18T23:30:26.237Z,143.65
2022-12-18T23:33:09.035Z,142.93
2022-12-18T23:35:57.210Z,139.70
2022-12-18T23:38:40.928Z,142.77
2022-12-18T23:41:32.467Z,140.52
2022-12-18T23:44:14.966Z,135.35
2022-12-18T23:46:57.526Z,140.23
2022-12-18T23:49:45.913Z,139.55
2022-12-18T23:52:28.164Z,136.02
2022-12-18T23:55:16.930Z,134.68
2022-12-18T23:57:59.121Z,138.10
